sensor_id;sensor_type;location;lat;lon;timestamp;pressure;altitude;pressure_sealevel;temperature;humidity
76815;BME280;65768;49.906;19.384;2023-07-13T00:01:10;97951.52;;;23.45;68.42
76815;BME280;65768;49.906;19.384;2023-07-13T00:03:41;97956.64;;;23.36;69.26
76815;BME280;65768;49.906;19.384;2023-07-13T00:06:11;97959.12;;;23.33;69.87
76815;BME280;65768;49.906;19.384;2023-07-13T00:08:39;97956.16;;;23.34;69.86
76815;BME280;65768;49.906;19.384;2023-07-13T00:11:07;97956.36;;;23.38;70.41
76815;BME280;65768;49.906;19.384;2023-07-13T00:13:35;97951.33;;;23.42;69.90
76815;BME280;65768;49.906;19.384;2023-07-13T00:16:07;97953.53;;;23.41;69.92
76815;BME280;65768;49.906;19.384;2023-07-13T00:18:35;97960.20;;;23.39;69.62
76815;BME280;65768;49.906;19.384;2023-07-13T00:21:04;97965.38;;;23.35;70.28
76815;BME280;65768;49.906;19.384;2023-07-13T00:23:41;97964.05;;;23.34;70.82
76815;BME280;65768;49.906;19.384;2023-07-13T00:26:11;97964.31;;;23.29;70.64
76815;BME280;65768;49.906;19.384;2023-07-13T00:28:40;97958.77;;;23.17;71.21
76815;BME280;65768;49.906;19.384;2023-07-13T00:31:11;97959.30;;;23.13;71.59
76815;BME280;65768;49.906;19.384;2023-07-13T00:33:39;97951.64;;;23.17;71.62
76815;BME280;65768;49.906;19.384;2023-07-13T00:36:08;97946.65;;;23.20;71.20
76815;BME280;65768;49.906;19.384;2023-07-13T00:38:37;97931.33;;;23.24;70.78
76815;BME280;65768;49.906;19.384;2023-07-13T00:41:05;97932.29;;;23.32;70.47
76815;BME280;65768;49.906;19.384;2023-07-13T00:43:33;97925.48;;;23.30;70.68
76815;BME280;65768;49.906;19.384;2023-07-13T00:48:32;97917.68;;;23.20;70.85
76815;BME280;65768;49.906;19.384;2023-07-13T00:51:02;97917.48;;;23.20;70.67
76815;BME280;65768;49.906;19.384;2023-07-13T00:53:32;97915.46;;;23.15;71.08
76815;BME280;65768;49.906;19.384;2023-07-13T00:56:02;97916.51;;;23.09;70.92
76815;BME280;65768;49.906;19.384;2023-07-13T00:58:31;97918.19;;;23.04;70.84
76815;BME280;65768;49.906;19.384;2023-07-13T01:00:59;97920.69;;;23.04;70.70
76815;BME280;65768;49.906;19.384;2023-07-13T01:03:27;97917.27;;;23.05;70.87
76815;BME280;65768;49.906;19.384;2023-07-13T01:05:56;97922.05;;;23.02;70.72
76815;BME280;65768;49.906;19.384;2023-07-13T01:08:24;97911.58;;;22.99;70.94
76815;BME280;65768;49.906;19.384;2023-07-13T01:10:56;97901.98;;;22.95;70.84
76815;BME280;65768;49.906;19.384;2023-07-13T01:13:25;97895.26;;;22.94;71.27
76815;BME280;65768;49.906;19.384;2023-07-13T01:15:58;97894.02;;;22.90;71.08
76815;BME280;65768;49.906;19.384;2023-07-13T01:18:29;97893.12;;;22.94;70.36
76815;BME280;65768;49.906;19.384;2023-07-13T01:21:03;97899.20;;;22.93;70.51
76815;BME280;65768;49.906;19.384;2023-07-13T01:23:32;97896.23;;;22.82;71.02
76815;BME280;65768;49.906;19.384;2023-07-13T01:26:01;97889.92;;;22.74;71.68
76815;BME280;65768;49.906;19.384;2023-07-13T01:28:29;97889.00;;;22.71;71.82
76815;BME280;65768;49.906;19.384;2023-07-13T01:30:58;97891.02;;;22.70;71.49
76815;BME280;65768;49.906;19.384;2023-07-13T01:33:27;97892.05;;;22.61;72.06
76815;BME280;65768;49.906;19.384;2023-07-13T01:35:55;97887.52;;;22.53;72.47
76815;BME280;65768;49.906;19.384;2023-07-13T01:38:25;97892.88;;;22.56;72.63
76815;BME280;65768;49.906;19.384;2023-07-13T01:40:54;97891.70;;;22.58;72.58
76815;BME280;65768;49.906;19.384;2023-07-13T01:43:22;97885.90;;;22.50;72.98
76815;BME280;65768;49.906;19.384;2023-07-13T01:45:50;97883.65;;;22.45;73.44
76815;BME280;65768;49.906;19.384;2023-07-13T01:48:18;97886.95;;;22.47;73.15
76815;BME280;65768;49.906;19.384;2023-07-13T01:50:48;97885.00;;;22.43;73.28
76815;BME280;65768;49.906;19.384;2023-07-13T01:53:16;97876.48;;;22.33;73.36
76815;BME280;65768;49.906;19.384;2023-07-13T01:55:44;97869.04;;;22.19;73.98
76815;BME280;65768;49.906;19.384;2023-07-13T01:58:12;97864.60;;;22.19;74.12
76815;BME280;65768;49.906;19.384;2023-07-13T02:00:48;97861.27;;;22.18;74.71
76815;BME280;65768;49.906;19.384;2023-07-13T02:03:18;97857.84;;;22.12;75.04
76815;BME280;65768;49.906;19.384;2023-07-13T02:05:47;97855.23;;;22.08;74.89
76815;BME280;65768;49.906;19.384;2023-07-13T02:08:15;97855.77;;;22.01;74.86
76815;BME280;65768;49.906;19.384;2023-07-13T02:10:43;97853.87;;;21.96;74.81
76815;BME280;65768;49.906;19.384;2023-07-13T02:13:12;97852.97;;;21.93;75.20
76815;BME280;65768;49.906;19.384;2023-07-13T02:15:40;97853.98;;;21.94;74.83
76815;BME280;65768;49.906;19.384;2023-07-13T02:18:11;97860.02;;;21.83;75.52
76815;BME280;65768;49.906;19.384;2023-07-13T02:20:40;97863.96;;;21.79;75.51
76815;BME280;65768;49.906;19.384;2023-07-13T02:23:08;97864.02;;;21.78;75.59
76815;BME280;65768;49.906;19.384;2023-07-13T02:25:37;97868.34;;;21.80;75.65
76815;BME280;65768;49.906;19.384;2023-07-13T02:28:05;97868.62;;;21.89;74.85
76815;BME280;65768;49.906;19.384;2023-07-13T02:30:34;97865.43;;;21.89;74.74
76815;BME280;65768;49.906;19.384;2023-07-13T02:33:02;97873.31;;;21.73;75.53
76815;BME280;65768;49.906;19.384;2023-07-13T02:35:31;97878.00;;;21.50;76.85
76815;BME280;65768;49.906;19.384;2023-07-13T02:37:59;97878.60;;;21.49;77.21
76815;BME280;65768;49.906;19.384;2023-07-13T02:40:27;97865.75;;;21.68;76.57
76815;BME280;65768;49.906;19.384;2023-07-13T02:42:55;97858.69;;;21.78;75.79
76815;BME280;65768;49.906;19.384;2023-07-13T02:45:23;97861.73;;;21.78;75.98
76815;BME280;65768;49.906;19.384;2023-07-13T02:47:51;97866.23;;;21.80;76.13
76815;BME280;65768;49.906;19.384;2023-07-13T02:50:20;97881.15;;;21.66;76.06
76815;BME280;65768;49.906;19.384;2023-07-13T02:52:48;97873.35;;;21.59;76.36
76815;BME280;65768;49.906;19.384;2023-07-13T02:55:16;97868.10;;;21.64;75.84
76815;BME280;65768;49.906;19.384;2023-07-13T02:57:44;97859.33;;;21.62;75.66
76815;BME280;65768;49.906;19.384;2023-07-13T03:00:13;97861.83;;;21.59;75.95
76815;BME280;65768;49.906;19.384;2023-07-13T03:02:41;97857.59;;;21.58;76.17
76815;BME280;65768;49.906;19.384;2023-07-13T03:05:09;97852.02;;;21.60;75.86
76815;BME280;65768;49.906;19.384;2023-07-13T03:07:40;97852.54;;;21.63;75.44
76815;BME280;65768;49.906;19.384;2023-07-13T03:10:09;97858.25;;;21.55;75.09
76815;BME280;65768;49.906;19.384;2023-07-13T03:12:37;97866.86;;;21.49;75.56
76815;BME280;65768;49.906;19.384;2023-07-13T03:15:06;97870.05;;;21.50;75.69
76815;BME280;65768;49.906;19.384;2023-07-13T03:17:34;97874.47;;;21.61;75.59
76815;BME280;65768;49.906;19.384;2023-07-13T03:20:02;97872.87;;;21.68;75.41
76815;BME280;65768;49.906;19.384;2023-07-13T03:22:31;97865.08;;;21.71;75.44
76815;BME280;65768;49.906;19.384;2023-07-13T03:24:59;97861.95;;;21.80;75.26
76815;BME280;65768;49.906;19.384;2023-07-13T03:27:27;97861.72;;;21.99;74.46
76815;BME280;65768;49.906;19.384;2023-07-13T03:29:55;97853.84;;;22.14;73.83
76815;BME280;65768;49.906;19.384;2023-07-13T03:32:23;97844.92;;;22.14;73.66
76815;BME280;65768;49.906;19.384;2023-07-13T03:34:51;97834.00;;;22.17;73.58
76815;BME280;65768;49.906;19.384;2023-07-13T03:37:19;97832.23;;;22.23;73.17
76815;BME280;65768;49.906;19.384;2023-07-13T03:39:48;97824.88;;;22.32;72.99
76815;BME280;65768;49.906;19.384;2023-07-13T03:42:16;97820.81;;;22.34;72.60
76815;BME280;65768;49.906;19.384;2023-07-13T03:44:45;97832.52;;;22.41;72.51
76815;BME280;65768;49.906;19.384;2023-07-13T03:51:04;97844.02;;;22.52;72.68
76815;BME280;65768;49.906;19.384;2023-07-13T03:53:32;97849.14;;;22.63;72.46
76815;BME280;65768;49.906;19.384;2023-07-13T03:56:48;97849.37;;;22.75;71.93
76815;BME280;65768;49.906;19.384;2023-07-13T03:59:24;97852.40;;;22.78;72.72
76815;BME280;65768;49.906;19.384;2023-07-13T04:01:53;97851.05;;;22.83;73.08
76815;BME280;65768;49.906;19.384;2023-07-13T04:04:21;97850.34;;;22.97;72.51
76815;BME280;65768;49.906;19.384;2023-07-13T04:06:49;97854.48;;;22.92;72.03
76815;BME280;65768;49.906;19.384;2023-07-13T04:09:21;97856.07;;;22.96;72.07
76815;BME280;65768;49.906;19.384;2023-07-13T04:11:49;97857.80;;;22.97;72.19
76815;BME280;65768;49.906;19.384;2023-07-13T04:14:17;97863.70;;;23.00;72.23
76815;BME280;65768;49.906;19.384;2023-07-13T04:16:45;97864.00;;;23.13;72.37
76815;BME280;65768;49.906;19.384;2023-07-13T04:19:13;97865.98;;;23.22;71.94
76815;BME280;65768;49.906;19.384;2023-07-13T04:21:42;97865.85;;;23.27;71.92
76815;BME280;65768;49.906;19.384;2023-07-13T04:24:10;97866.83;;;23.32;71.68
76815;BME280;65768;49.906;19.384;2023-07-13T04:26:38;97861.33;;;23.32;71.62
76815;BME280;65768;49.906;19.384;2023-07-13T04:29:07;97864.15;;;23.45;71.44
76815;BME280;65768;49.906;19.384;2023-07-13T04:31:35;97857.90;;;23.39;71.11
76815;BME280;65768;49.906;19.384;2023-07-13T04:34:04;97859.69;;;23.35;71.11
76815;BME280;65768;49.906;19.384;2023-07-13T04:36:32;97857.90;;;23.45;71.45
76815;BME280;65768;49.906;19.384;2023-07-13T04:39:00;97851.81;;;23.55;71.34
76815;BME280;65768;49.906;19.384;2023-07-13T04:41:28;97852.64;;;23.59;71.75
76815;BME280;65768;49.906;19.384;2023-07-13T04:43:56;97852.19;;;23.74;71.30
76815;BME280;65768;49.906;19.384;2023-07-13T04:46:24;97845.11;;;23.69;71.00
76815;BME280;65768;49.906;19.384;2023-07-13T04:48:53;97848.17;;;23.50;71.76
76815;BME280;65768;49.906;19.384;2023-07-13T04:51:22;97846.52;;;23.54;71.59
76815;BME280;65768;49.906;19.384;2023-07-13T04:53:50;97849.47;;;23.49;72.02
76815;BME280;65768;49.906;19.384;2023-07-13T04:56:18;97851.55;;;23.51;72.62
76815;BME280;65768;49.906;19.384;2023-07-13T04:58:47;97855.13;;;23.65;72.07
76815;BME280;65768;49.906;19.384;2023-07-13T05:01:15;97858.42;;;23.79;71.66
76815;BME280;65768;49.906;19.384;2023-07-13T05:03:44;97851.67;;;23.91;70.90
76815;BME280;65768;49.906;19.384;2023-07-13T05:06:12;97847.30;;;24.02;70.01
76815;BME280;65768;49.906;19.384;2023-07-13T05:08:42;97848.60;;;24.16;69.69
76815;BME280;65768;49.906;19.384;2023-07-13T05:11:10;97849.45;;;24.34;69.33
76815;BME280;65768;49.906;19.384;2023-07-13T05:13:38;97854.05;;;24.44;69.42
76815;BME280;65768;49.906;19.384;2023-07-13T05:16:06;97856.31;;;24.56;68.82
76815;BME280;65768;49.906;19.384;2023-07-13T05:18:36;97854.16;;;24.48;69.39
76815;BME280;65768;49.906;19.384;2023-07-13T05:21:06;97856.33;;;24.59;68.78
76815;BME280;65768;49.906;19.384;2023-07-13T05:23:35;97853.69;;;24.64;68.34
76815;BME280;65768;49.906;19.384;2023-07-13T05:26:04;97849.95;;;24.64;68.42
76815;BME280;65768;49.906;19.384;2023-07-13T05:28:32;97848.61;;;24.59;68.76
76815;BME280;65768;49.906;19.384;2023-07-13T05:31:01;97849.18;;;24.59;68.59
76815;BME280;65768;49.906;19.384;2023-07-13T05:33:29;97855.70;;;24.63;69.64
76815;BME280;65768;49.906;19.384;2023-07-13T05:35:57;97857.77;;;24.75;69.03
76815;BME280;65768;49.906;19.384;2023-07-13T05:38:26;97859.78;;;24.92;68.51
76815;BME280;65768;49.906;19.384;2023-07-13T05:40:55;97860.01;;;25.13;68.55
76815;BME280;65768;49.906;19.384;2023-07-13T05:43:24;97859.98;;;25.22;68.04
76815;BME280;65768;49.906;19.384;2023-07-13T05:45:54;97867.77;;;25.42;67.67
76815;BME280;65768;49.906;19.384;2023-07-13T05:48:23;97866.70;;;25.64;66.76
76815;BME280;65768;49.906;19.384;2023-07-13T05:50:51;97861.12;;;25.78;66.21
76815;BME280;65768;49.906;19.384;2023-07-13T05:53:19;97856.28;;;25.95;64.91
76815;BME280;65768;49.906;19.384;2023-07-13T05:55:48;97852.27;;;26.06;64.44
76815;BME280;65768;49.906;19.384;2023-07-13T05:58:18;97852.13;;;26.03;64.54
76815;BME280;65768;49.906;19.384;2023-07-13T06:00:47;97852.01;;;26.15;63.89
76815;BME280;65768;49.906;19.384;2023-07-13T06:03:15;97855.04;;;26.29;63.61
76815;BME280;65768;49.906;19.384;2023-07-13T06:05:44;97853.75;;;26.29;62.95
76815;BME280;65768;49.906;19.384;2023-07-13T06:08:12;97860.57;;;26.55;61.51
76815;BME280;65768;49.906;19.384;2023-07-13T06:10:41;97856.70;;;26.66;61.17
76815;BME280;65768;49.906;19.384;2023-07-13T06:13:09;97862.39;;;26.82;60.18
76815;BME280;65768;49.906;19.384;2023-07-13T06:15:37;97867.32;;;26.58;60.70
76815;BME280;65768;49.906;19.384;2023-07-13T06:18:06;97861.29;;;26.70;61.11
76815;BME280;65768;49.906;19.384;2023-07-13T06:20:34;97861.36;;;26.82;59.87
76815;BME280;65768;49.906;19.384;2023-07-13T06:23:02;97860.25;;;26.74;59.57
76815;BME280;65768;49.906;19.384;2023-07-13T06:25:31;97865.31;;;26.84;60.17
76815;BME280;65768;49.906;19.384;2023-07-13T06:27:59;97864.42;;;27.01;59.64
76815;BME280;65768;49.906;19.384;2023-07-13T06:30:29;97869.08;;;26.96;59.37
76815;BME280;65768;49.906;19.384;2023-07-13T06:32:57;97866.95;;;27.16;59.32
76815;BME280;65768;49.906;19.384;2023-07-13T06:35:25;97861.67;;;27.15;58.39
76815;BME280;65768;49.906;19.384;2023-07-13T06:37:54;97863.56;;;27.23;57.72
76815;BME280;65768;49.906;19.384;2023-07-13T06:40:22;97865.60;;;27.27;58.20
76815;BME280;65768;49.906;19.384;2023-07-13T06:42:50;97863.56;;;27.59;58.97
76815;BME280;65768;49.906;19.384;2023-07-13T06:45:19;97863.23;;;27.95;58.23
76815;BME280;65768;49.906;19.384;2023-07-13T06:47:47;97858.24;;;28.16;57.02
76815;BME280;65768;49.906;19.384;2023-07-13T06:50:15;97857.40;;;28.20;56.24
76815;BME280;65768;49.906;19.384;2023-07-13T06:52:43;97854.85;;;28.30;55.58
76815;BME280;65768;49.906;19.384;2023-07-13T06:55:11;97850.39;;;28.13;55.67
76815;BME280;65768;49.906;19.384;2023-07-13T06:57:40;97852.27;;;28.03;55.76
76815;BME280;65768;49.906;19.384;2023-07-13T07:00:08;97853.97;;;28.27;55.53
76815;BME280;65768;49.906;19.384;2023-07-13T07:02:37;97859.65;;;28.21;55.10
76815;BME280;65768;49.906;19.384;2023-07-13T07:05:06;97862.23;;;28.31;54.84
76815;BME280;65768;49.906;19.384;2023-07-13T07:07:34;97870.23;;;28.28;53.73
76815;BME280;65768;49.906;19.384;2023-07-13T07:10:02;97871.91;;;28.41;55.05
76815;BME280;65768;49.906;19.384;2023-07-13T07:12:31;97873.73;;;28.41;55.88
76815;BME280;65768;49.906;19.384;2023-07-13T07:14:59;97880.87;;;28.25;54.27
76815;BME280;65768;49.906;19.384;2023-07-13T07:17:27;97884.70;;;28.19;55.89
76815;BME280;65768;49.906;19.384;2023-07-13T07:19:55;97890.53;;;28.16;56.04
76815;BME280;65768;49.906;19.384;2023-07-13T07:22:24;97896.23;;;27.97;56.55
76815;BME280;65768;49.906;19.384;2023-07-13T07:24:58;97901.44;;;27.92;55.38
76815;BME280;65768;49.906;19.384;2023-07-13T07:27:26;97898.91;;;28.21;54.95
76815;BME280;65768;49.906;19.384;2023-07-13T07:29:54;97892.56;;;28.41;55.16
76815;BME280;65768;49.906;19.384;2023-07-13T07:32:23;97891.15;;;28.36;54.82
76815;BME280;65768;49.906;19.384;2023-07-13T07:34:51;97893.43;;;28.48;55.11
76815;BME280;65768;49.906;19.384;2023-07-13T07:37:19;97896.07;;;28.47;55.49
76815;BME280;65768;49.906;19.384;2023-07-13T07:39:48;97897.61;;;28.50;55.60
76815;BME280;65768;49.906;19.384;2023-07-13T07:42:16;97898.10;;;28.20;56.65
76815;BME280;65768;49.906;19.384;2023-07-13T07:44:45;97896.23;;;28.49;56.40
76815;BME280;65768;49.906;19.384;2023-07-13T07:47:13;97904.00;;;28.17;56.03
76815;BME280;65768;49.906;19.384;2023-07-13T07:49:41;97903.13;;;28.43;55.97
76815;BME280;65768;49.906;19.384;2023-07-13T07:52:09;97904.80;;;28.40;56.03
76815;BME280;65768;49.906;19.384;2023-07-13T07:54:38;97910.99;;;27.98;57.08
76815;BME280;65768;49.906;19.384;2023-07-13T07:57:06;97914.52;;;27.34;58.09
76815;BME280;65768;49.906;19.384;2023-07-13T07:59:37;97913.12;;;27.06;58.03
76815;BME280;65768;49.906;19.384;2023-07-13T08:02:08;97913.77;;;27.17;58.81
76815;BME280;65768;49.906;19.384;2023-07-13T08:04:36;97917.86;;;27.32;58.01
76815;BME280;65768;49.906;19.384;2023-07-13T08:07:06;97916.99;;;27.46;57.51
76815;BME280;65768;49.906;19.384;2023-07-13T08:09:34;97911.79;;;27.76;56.75
76815;BME280;65768;49.906;19.384;2023-07-13T08:12:02;97907.53;;;27.78;56.31
76815;BME280;65768;49.906;19.384;2023-07-13T08:14:31;97906.55;;;27.96;55.73
76815;BME280;65768;49.906;19.384;2023-07-13T08:16:59;97910.13;;;27.93;56.13
76815;BME280;65768;49.906;19.384;2023-07-13T08:19:27;97908.14;;;27.79;55.59
76815;BME280;65768;49.906;19.384;2023-07-13T08:21:56;97907.69;;;27.68;57.16
76815;BME280;65768;49.906;19.384;2023-07-13T08:24:24;97908.48;;;27.87;56.95
76815;BME280;65768;49.906;19.384;2023-07-13T08:26:52;97909.48;;;27.81;56.81
76815;BME280;65768;49.906;19.384;2023-07-13T08:29:20;97905.77;;;27.89;56.24
76815;BME280;65768;49.906;19.384;2023-07-13T08:31:48;97904.95;;;28.08;55.55
76815;BME280;65768;49.906;19.384;2023-07-13T08:34:16;97903.22;;;28.09;54.92
76815;BME280;65768;49.906;19.384;2023-07-13T08:36:44;97905.02;;;28.00;54.29
76815;BME280;65768;49.906;19.384;2023-07-13T08:39:13;97903.75;;;28.07;55.14
76815;BME280;65768;49.906;19.384;2023-07-13T08:41:45;97895.67;;;28.35;54.12
76815;BME280;65768;49.906;19.384;2023-07-13T08:44:32;97893.46;;;28.39;54.27
76815;BME280;65768;49.906;19.384;2023-07-13T08:47:04;97896.05;;;28.04;54.57
76815;BME280;65768;49.906;19.384;2023-07-13T08:49:34;97888.57;;;27.82;55.48
76815;BME280;65768;49.906;19.384;2023-07-13T08:52:32;97886.15;;;27.83;55.60
76815;BME280;65768;49.906;19.384;2023-07-13T08:54:58;97886.14;;;28.03;55.37
76815;BME280;65768;49.906;19.384;2023-07-13T08:57:34;97887.44;;;27.97;55.11
76815;BME280;65768;49.906;19.384;2023-07-13T09:00:02;97884.60;;;28.04;55.23
76815;BME280;65768;49.906;19.384;2023-07-13T09:02:46;97881.64;;;28.03;53.57
76815;BME280;65768;49.906;19.384;2023-07-13T09:05:27;97878.43;;;27.62;54.57
76815;BME280;65768;49.906;19.384;2023-07-13T09:14:23;97868.23;;;27.81;53.74
76815;BME280;65768;49.906;19.384;2023-07-13T09:16:54;97867.33;;;27.55;55.40
76815;BME280;65768;49.906;19.384;2023-07-13T09:19:28;97865.09;;;27.75;54.67
76815;BME280;65768;49.906;19.384;2023-07-13T09:21:59;97863.13;;;27.75;54.32
76815;BME280;65768;49.906;19.384;2023-07-13T09:24:37;97867.67;;;27.43;54.89
76815;BME280;65768;49.906;19.384;2023-07-13T09:27:22;97867.27;;;27.11;55.80
76815;BME280;65768;49.906;19.384;2023-07-13T09:32:47;97877.27;;;27.22;56.40
76815;BME280;65768;49.906;19.384;2023-07-13T09:35:26;97877.05;;;27.12;57.07
76815;BME280;65768;49.906;19.384;2023-07-13T09:40:53;97879.34;;;27.10;57.82
76815;BME280;65768;49.906;19.384;2023-07-13T09:43:23;97881.64;;;27.08;58.42
76815;BME280;65768;49.906;19.384;2023-07-13T09:45:52;97889.35;;;26.67;58.35
76815;BME280;65768;49.906;19.384;2023-07-13T09:48:21;97890.89;;;26.19;60.10
76815;BME280;65768;49.906;19.384;2023-07-13T09:50:54;97893.09;;;26.39;59.78
76815;BME280;65768;49.906;19.384;2023-07-13T09:53:23;97899.91;;;26.59;60.22
76815;BME280;65768;49.906;19.384;2023-07-13T09:55:52;97901.08;;;26.27;60.52
76815;BME280;65768;49.906;19.384;2023-07-13T09:58:25;97902.56;;;25.89;61.99
76815;BME280;65768;49.906;19.384;2023-07-13T10:01:00;97900.23;;;26.37;61.75
76815;BME280;65768;49.906;19.384;2023-07-13T10:03:34;97907.43;;;26.07;62.70
76815;BME280;65768;49.906;19.384;2023-07-13T10:08:40;97913.60;;;25.32;65.23
76815;BME280;65768;49.906;19.384;2023-07-13T10:11:10;97920.45;;;25.14;65.95
76815;BME280;65768;49.906;19.384;2023-07-13T10:13:52;97924.88;;;24.51;67.65
76815;BME280;65768;49.906;19.384;2023-07-13T10:16:26;97929.84;;;24.58;68.00
76815;BME280;65768;49.906;19.384;2023-07-13T10:18:58;97941.80;;;24.15;69.40
76815;BME280;65768;49.906;19.384;2023-07-13T10:21:32;97944.64;;;23.53;72.16
76815;BME280;65768;49.906;19.384;2023-07-13T10:24:10;97949.00;;;23.77;72.36
76815;BME280;65768;49.906;19.384;2023-07-13T10:30:35;97958.79;;;23.16;75.63
76815;BME280;65768;49.906;19.384;2023-07-13T10:37:26;97984.70;;;23.00;78.58
76815;BME280;65768;49.906;19.384;2023-07-13T10:39:56;97990.86;;;22.78;80.37
76815;BME280;65768;49.906;19.384;2023-07-13T10:42:35;98000.12;;;22.74;80.37
76815;BME280;65768;49.906;19.384;2023-07-13T10:45:16;98001.41;;;22.32;83.06
76815;BME280;65768;49.906;19.384;2023-07-13T10:47:47;98010.80;;;22.18;83.87
76815;BME280;65768;49.906;19.384;2023-07-13T10:50:21;98015.89;;;21.94;86.12
76815;BME280;65768;49.906;19.384;2023-07-13T10:52:56;98016.14;;;21.92;86.43
76815;BME280;65768;49.906;19.384;2023-07-13T10:58:36;98030.70;;;21.12;88.03
76815;BME280;65768;49.906;19.384;2023-07-13T11:01:15;98036.77;;;21.18;87.74
76815;BME280;65768;49.906;19.384;2023-07-13T11:03:55;98041.25;;;21.17;86.09
76815;BME280;65768;49.906;19.384;2023-07-13T11:08:58;98045.23;;;20.80;85.67
76815;BME280;65768;49.906;19.384;2023-07-13T11:11:37;98049.58;;;20.27;86.63
76815;BME280;65768;49.906;19.384;2023-07-13T11:16:57;98067.23;;;20.67;84.66
76815;BME280;65768;49.906;19.384;2023-07-13T11:19:28;98079.41;;;20.80;83.98
76815;BME280;65768;49.906;19.384;2023-07-13T11:25:06;98098.04;;;20.41;84.26
76815;BME280;65768;49.906;19.384;2023-07-13T11:33:23;98117.75;;;20.57;82.78
76815;BME280;65768;49.906;19.384;2023-07-13T11:39:03;98129.53;;;20.41;81.32
76815;BME280;65768;49.906;19.384;2023-07-13T11:41:37;98129.45;;;20.90;80.77
76815;BME280;65768;49.906;19.384;2023-07-13T11:44:14;98139.16;;;20.92;80.76
76815;BME280;65768;49.906;19.384;2023-07-13T11:46:52;98134.36;;;20.79;80.82
76815;BME280;65768;49.906;19.384;2023-07-13T11:49:23;98135.14;;;21.03;79.82
76815;BME280;65768;49.906;19.384;2023-07-13T11:51:52;98140.15;;;20.94;80.35
76815;BME280;65768;49.906;19.384;2023-07-13T11:54:33;98136.78;;;21.22;80.16
76815;BME280;65768;49.906;19.384;2023-07-13T11:57:23;98138.61;;;20.88;79.96
76815;BME280;65768;49.906;19.384;2023-07-13T11:59:52;98137.55;;;20.84;80.71
76815;BME280;65768;49.906;19.384;2023-07-13T12:02:33;98138.59;;;20.72;81.01
76815;BME280;65768;49.906;19.384;2023-07-13T12:05:03;98137.13;;;21.10;80.49
76815;BME280;65768;49.906;19.384;2023-07-13T12:07:33;98130.69;;;21.11;79.63
76815;BME280;65768;49.906;19.384;2023-07-13T12:10:18;98132.20;;;21.34;80.03
76815;BME280;65768;49.906;19.384;2023-07-13T12:13:08;98135.13;;;21.28;79.00
76815;BME280;65768;49.906;19.384;2023-07-13T12:15:39;98126.64;;;21.39;79.90
76815;BME280;65768;49.906;19.384;2023-07-13T12:18:29;98125.16;;;21.72;78.79
76815;BME280;65768;49.906;19.384;2023-07-13T12:20:59;98113.66;;;21.56;78.66
76815;BME280;65768;49.906;19.384;2023-07-13T12:23:31;98116.91;;;21.51;78.19
76815;BME280;65768;49.906;19.384;2023-07-13T12:26:01;98112.93;;;21.68;77.62
76815;BME280;65768;49.906;19.384;2023-07-13T12:28:37;98105.91;;;22.23;76.02
76815;BME280;65768;49.906;19.384;2023-07-13T12:31:23;98104.99;;;22.12;74.80
76815;BME280;65768;49.906;19.384;2023-07-13T12:33:59;98109.55;;;22.32;74.58
76815;BME280;65768;49.906;19.384;2023-07-13T12:36:34;98118.15;;;22.20;74.13
76815;BME280;65768;49.906;19.384;2023-07-13T12:39:20;98123.61;;;21.94;75.29
76815;BME280;65768;49.906;19.384;2023-07-13T12:41:52;98121.86;;;22.23;76.50
76815;BME280;65768;49.906;19.384;2023-07-13T12:44:30;98126.64;;;22.71;73.75
76815;BME280;65768;49.906;19.384;2023-07-13T12:47:05;98129.05;;;23.04;72.89
76815;BME280;65768;49.906;19.384;2023-07-13T12:49:42;98131.74;;;24.04;72.46
76815;BME280;65768;49.906;19.384;2023-07-13T12:52:29;98130.26;;;24.53;69.60
76815;BME280;65768;49.906;19.384;2023-07-13T12:55:13;98123.48;;;24.43;69.20
76815;BME280;65768;49.906;19.384;2023-07-13T12:57:51;98114.79;;;24.50;66.76
76815;BME280;65768;49.906;19.384;2023-07-13T13:02:55;98100.25;;;24.75;65.99
76815;BME280;65768;49.906;19.384;2023-07-13T13:05:26;98098.61;;;24.51;65.06
76815;BME280;65768;49.906;19.384;2023-07-13T13:07:55;98097.55;;;24.01;66.59
76815;BME280;65768;49.906;19.384;2023-07-13T13:10:23;98102.55;;;23.94;67.06
76815;BME280;65768;49.906;19.384;2023-07-13T13:12:52;98108.61;;;23.69;68.64
76815;BME280;65768;49.906;19.384;2023-07-13T13:15:21;98110.59;;;23.58;68.20
76815;BME280;65768;49.906;19.384;2023-07-13T13:17:51;98114.13;;;23.48;69.76
76815;BME280;65768;49.906;19.384;2023-07-13T13:20:21;98122.45;;;23.42;70.89
76815;BME280;65768;49.906;19.384;2023-07-13T13:22:50;98129.90;;;23.08;71.09
76815;BME280;65768;49.906;19.384;2023-07-13T13:25:18;98142.26;;;22.75;72.83
76815;BME280;65768;49.906;19.384;2023-07-13T13:27:47;98147.86;;;22.29;73.01
76815;BME280;65768;49.906;19.384;2023-07-13T13:30:17;98148.34;;;22.16;74.15
76815;BME280;65768;49.906;19.384;2023-07-13T13:32:47;98147.17;;;22.29;74.13
76815;BME280;65768;49.906;19.384;2023-07-13T13:35:18;98148.98;;;22.28;74.08
76815;BME280;65768;49.906;19.384;2023-07-13T13:37:47;98149.79;;;22.38;73.65
76815;BME280;65768;49.906;19.384;2023-07-13T13:40:21;98146.83;;;22.18;74.46
76815;BME280;65768;49.906;19.384;2023-07-13T13:42:54;98139.48;;;22.26;74.55
76815;BME280;65768;49.906;19.384;2023-07-13T13:45:24;98140.52;;;22.89;73.37
76815;BME280;65768;49.906;19.384;2023-07-13T13:47:52;98136.16;;;23.18;71.51
76815;BME280;65768;49.906;19.384;2023-07-13T13:50:21;98134.59;;;23.15;70.90
76815;BME280;65768;49.906;19.384;2023-07-13T13:52:50;98135.91;;;22.98;70.63
76815;BME280;65768;49.906;19.384;2023-07-13T13:55:21;98130.34;;;23.57;70.69
76815;BME280;65768;49.906;19.384;2023-07-13T13:57:51;98127.27;;;23.92;69.35
76815;BME280;65768;49.906;19.384;2023-07-13T14:00:20;98125.86;;;23.88;68.18